KFLL/FLL METAR and TAF weather

Enter ICAO airport designator
Station Type Date Time Source
KFLL METAR 2020/03/28 07:53 UTC NOAA

KFLL 280753Z 12005KT 10SM CLR 22/16 A3001 RMK AO2 SLP163 T02220161


Station Type Date Time Source
KFLL Decoded METAR 2020/03/28 07:53 UTC NOAA

FORT LAUDERDALE/HOLLYWOOD, FL, United States (KFLL) 26-04N 080-09W 30M
Mar 28, 2020 - 03:53 AM EDT / 2020.03.28 0753 UTC
Wind: from the ESE (120 degrees) at 6 MPH (5 KT):0
Visibility: 10 mile(s):0
Sky conditions: clear
Temperature: 72.0 F (22.2 C)
Dew Point: 61.0 F (16.1 C)
Relative Humidity: 68%
Pressure (altimeter): 30.01 in. Hg (1016 hPa)
ob: KFLL 280753Z 12005KT 10SM CLR 22/16 A3001 RMK AO2 SLP163 T02220161
cycle: 8

Station Type Date Time Source
KFLL TAF 2020/03/28 06:43 UTC NOAA

TAF KFLL 280537Z 2806/2912 VRB04KT P6SM SCT030
FM281400 12012KT P6SM SCT035 SCT060
FM290200 13009KT P6SM SCT030

Example: see airport list